sensor_id;sensor_type;location;lat;lon;timestamp;temperature;humidity
49531;DHT22;38889;30.622;104.088;2022-09-09T00:04:37;25.40;57.50
49531;DHT22;38889;30.622;104.088;2022-09-09T00:07:07;25.40;57.40
49531;DHT22;38889;30.622;104.088;2022-09-09T00:09:47;25.40;57.60
49531;DHT22;38889;30.622;104.088;2022-09-09T00:12:42;25.40;57.40
49531;DHT22;38889;30.622;104.088;2022-09-09T00:18:23;25.40;57.50
49531;DHT22;38889;30.622;104.088;2022-09-09T00:21:12;25.40;57.40
49531;DHT22;38889;30.622;104.088;2022-09-09T00:23:49;25.30;57.30
49531;DHT22;38889;30.622;104.088;2022-09-09T00:31:39;25.30;57.60
49531;DHT22;38889;30.622;104.088;2022-09-09T00:36:38;25.30;57.60
49531;DHT22;38889;30.622;104.088;2022-09-09T00:39:09;25.30;57.60
49531;DHT22;38889;30.622;104.088;2022-09-09T00:42:17;25.30;57.70
49531;DHT22;38889;30.622;104.088;2022-09-09T00:44:52;25.20;57.50
49531;DHT22;38889;30.622;104.088;2022-09-09T00:58:36;25.20;57.70
49531;DHT22;38889;30.622;104.088;2022-09-09T01:01:04;25.20;57.70
49531;DHT22;38889;30.622;104.088;2022-09-09T01:03:54;25.20;57.80
49531;DHT22;38889;30.622;104.088;2022-09-09T01:06:37;25.10;57.80
49531;DHT22;38889;30.622;104.088;2022-09-09T01:09:28;25.10;57.80
49531;DHT22;38889;30.622;104.088;2022-09-09T01:12:23;25.10;57.80
49531;DHT22;38889;30.622;104.088;2022-09-09T01:17:52;25.10;57.90
49531;DHT22;38889;30.622;104.088;2022-09-09T01:21:02;25.10;58.00
49531;DHT22;38889;30.622;104.088;2022-09-09T01:26:32;25.10;58.20
49531;DHT22;38889;30.622;104.088;2022-09-09T01:29:01;25.10;58.20
49531;DHT22;38889;30.622;104.088;2022-09-09T01:31:32;25.10;58.20
49531;DHT22;38889;30.622;104.088;2022-09-09T01:34:01;25.10;58.20
49531;DHT22;38889;30.622;104.088;2022-09-09T01:36:34;25.10;58.30
49531;DHT22;38889;30.622;104.088;2022-09-09T01:39:04;25.10;58.30
49531;DHT22;38889;30.622;104.088;2022-09-09T01:41:32;25.00;58.40
49531;DHT22;38889;30.622;104.088;2022-09-09T01:43:59;25.00;58.40
49531;DHT22;38889;30.622;104.088;2022-09-09T01:46:28;25.00;58.40
49531;DHT22;38889;30.622;104.088;2022-09-09T01:48:57;25.00;58.50
49531;DHT22;38889;30.622;104.088;2022-09-09T01:51:26;25.00;58.50
49531;DHT22;38889;30.622;104.088;2022-09-09T01:53:53;25.00;58.60
49531;DHT22;38889;30.622;104.088;2022-09-09T01:59:24;25.00;58.50
49531;DHT22;38889;30.622;104.088;2022-09-09T02:02:06;25.00;58.50
49531;DHT22;38889;30.622;104.088;2022-09-09T02:04:45;25.00;58.60
49531;DHT22;38889;30.622;104.088;2022-09-09T02:10:33;25.00;58.70
49531;DHT22;38889;30.622;104.088;2022-09-09T02:13:30;25.00;58.70
49531;DHT22;38889;30.622;104.088;2022-09-09T02:16:12;25.00;58.70
49531;DHT22;38889;30.622;104.088;2022-09-09T02:18:58;25.00;58.80
49531;DHT22;38889;30.622;104.088;2022-09-09T02:21:29;25.00;58.80
49531;DHT22;38889;30.622;104.088;2022-09-09T02:24:00;25.00;58.90
49531;DHT22;38889;30.622;104.088;2022-09-09T02:26:32;25.00;58.90
49531;DHT22;38889;30.622;104.088;2022-09-09T02:29:04;25.00;58.90
49531;DHT22;38889;30.622;104.088;2022-09-09T02:31:33;25.00;58.90
49531;DHT22;38889;30.622;104.088;2022-09-09T02:34:03;25.00;59.00
49531;DHT22;38889;30.622;104.088;2022-09-09T02:36:32;25.00;59.00
49531;DHT22;38889;30.622;104.088;2022-09-09T02:39:03;25.00;59.00
49531;DHT22;38889;30.622;104.088;2022-09-09T02:41:39;25.00;58.90
49531;DHT22;38889;30.622;104.088;2022-09-09T02:44:17;25.00;58.90
49531;DHT22;38889;30.622;104.088;2022-09-09T02:52:33;25.00;58.80
49531;DHT22;38889;30.622;104.088;2022-09-09T02:55:12;25.00;58.90
49531;DHT22;38889;30.622;104.088;2022-09-09T02:57:46;25.00;59.00
49531;DHT22;38889;30.622;104.088;2022-09-09T03:00:14;25.00;59.00
49531;DHT22;38889;30.622;104.088;2022-09-09T03:02:41;25.00;59.10
49531;DHT22;38889;30.622;104.088;2022-09-09T03:05:08;25.00;59.10
49531;DHT22;38889;30.622;104.088;2022-09-09T03:07:39;25.00;59.10
49531;DHT22;38889;30.622;104.088;2022-09-09T03:10:06;25.00;59.20
49531;DHT22;38889;30.622;104.088;2022-09-09T03:12:34;25.00;59.10
49531;DHT22;38889;30.622;104.088;2022-09-09T03:15:02;25.00;59.10
49531;DHT22;38889;30.622;104.088;2022-09-09T03:17:29;25.00;59.10
49531;DHT22;38889;30.622;104.088;2022-09-09T03:19:56;25.00;59.10
49531;DHT22;38889;30.622;104.088;2022-09-09T03:22:24;25.00;59.10
49531;DHT22;38889;30.622;104.088;2022-09-09T03:24:54;25.00;59.10
49531;DHT22;38889;30.622;104.088;2022-09-09T03:27:21;25.00;59.10
49531;DHT22;38889;30.622;104.088;2022-09-09T03:29:48;25.00;59.20
49531;DHT22;38889;30.622;104.088;2022-09-09T03:32:18;25.00;59.20
49531;DHT22;38889;30.622;104.088;2022-09-09T03:34:49;25.00;59.20
49531;DHT22;38889;30.622;104.088;2022-09-09T03:37:18;25.00;59.10
49531;DHT22;38889;30.622;104.088;2022-09-09T03:39:46;25.00;59.10
49531;DHT22;38889;30.622;104.088;2022-09-09T03:42:15;25.00;59.20
49531;DHT22;38889;30.622;104.088;2022-09-09T03:44:46;25.00;59.10
49531;DHT22;38889;30.622;104.088;2022-09-09T03:47:20;25.00;59.10
49531;DHT22;38889;30.622;104.088;2022-09-09T03:49:48;25.00;59.10
49531;DHT22;38889;30.622;104.088;2022-09-09T03:52:16;25.00;59.10
49531;DHT22;38889;30.622;104.088;2022-09-09T03:54:45;25.00;59.10
49531;DHT22;38889;30.622;104.088;2022-09-09T03:57:12;25.00;59.10
49531;DHT22;38889;30.622;104.088;2022-09-09T03:59:43;25.00;59.10
49531;DHT22;38889;30.622;104.088;2022-09-09T04:02:11;25.00;59.10
49531;DHT22;38889;30.622;104.088;2022-09-09T04:04:38;25.00;59.10
49531;DHT22;38889;30.622;104.088;2022-09-09T04:07:06;25.00;59.10
49531;DHT22;38889;30.622;104.088;2022-09-09T04:09:34;25.00;59.00
49531;DHT22;38889;30.622;104.088;2022-09-09T04:12:01;25.00;59.10
49531;DHT22;38889;30.622;104.088;2022-09-09T04:14:28;25.00;59.10
49531;DHT22;38889;30.622;104.088;2022-09-09T04:17:05;25.00;59.20
49531;DHT22;38889;30.622;104.088;2022-09-09T04:19:35;25.00;59.00
49531;DHT22;38889;30.622;104.088;2022-09-09T04:22:02;25.00;59.20
49531;DHT22;38889;30.622;104.088;2022-09-09T04:24:29;25.00;59.20
49531;DHT22;38889;30.622;104.088;2022-09-09T04:26:57;25.00;59.20
49531;DHT22;38889;30.622;104.088;2022-09-09T04:29:24;25.00;59.30
49531;DHT22;38889;30.622;104.088;2022-09-09T04:31:51;25.00;59.20
49531;DHT22;38889;30.622;104.088;2022-09-09T04:34:23;25.00;59.20
49531;DHT22;38889;30.622;104.088;2022-09-09T04:36:50;25.00;59.20
49531;DHT22;38889;30.622;104.088;2022-09-09T04:39:18;25.00;59.30
49531;DHT22;38889;30.622;104.088;2022-09-09T04:41:46;25.00;59.30
49531;DHT22;38889;30.622;104.088;2022-09-09T04:44:13;25.00;59.20
49531;DHT22;38889;30.622;104.088;2022-09-09T04:46:40;25.00;59.20
49531;DHT22;38889;30.622;104.088;2022-09-09T04:49:08;25.00;59.90
49531;DHT22;38889;30.622;104.088;2022-09-09T04:51:35;25.00;59.30
49531;DHT22;38889;30.622;104.088;2022-09-09T04:54:02;25.00;59.20
49531;DHT22;38889;30.622;104.088;2022-09-09T04:56:30;25.00;59.30
49531;DHT22;38889;30.622;104.088;2022-09-09T04:58:57;25.00;59.90
49531;DHT22;38889;30.622;104.088;2022-09-09T05:01:24;25.00;59.40
49531;DHT22;38889;30.622;104.088;2022-09-09T05:03:52;25.00;59.30
49531;DHT22;38889;30.622;104.088;2022-09-09T05:06:21;25.00;59.30
49531;DHT22;38889;30.622;104.088;2022-09-09T05:08:48;25.00;59.30
49531;DHT22;38889;30.622;104.088;2022-09-09T05:13:45;25.00;59.40
49531;DHT22;38889;30.622;104.088;2022-09-09T05:16:14;25.00;59.40
49531;DHT22;38889;30.622;104.088;2022-09-09T05:18:47;25.00;59.40
49531;DHT22;38889;30.622;104.088;2022-09-09T05:21:16;25.00;59.50
49531;DHT22;38889;30.622;104.088;2022-09-09T05:23:44;25.00;59.50
49531;DHT22;38889;30.622;104.088;2022-09-09T05:26:17;25.00;59.50
49531;DHT22;38889;30.622;104.088;2022-09-09T05:28:45;25.00;59.60
49531;DHT22;38889;30.622;104.088;2022-09-09T05:31:13;25.00;59.70
49531;DHT22;38889;30.622;104.088;2022-09-09T05:33:43;25.00;60.30
49531;DHT22;38889;30.622;104.088;2022-09-09T05:36:14;25.00;59.70
49531;DHT22;38889;30.622;104.088;2022-09-09T05:38:42;25.00;59.70
49531;DHT22;38889;30.622;104.088;2022-09-09T05:41:11;25.00;59.80
49531;DHT22;38889;30.622;104.088;2022-09-09T05:43:39;25.00;59.80
49531;DHT22;38889;30.622;104.088;2022-09-09T05:46:11;25.00;59.80
49531;DHT22;38889;30.622;104.088;2022-09-09T05:48:41;25.00;59.70
49531;DHT22;38889;30.622;104.088;2022-09-09T05:51:16;25.00;59.80
49531;DHT22;38889;30.622;104.088;2022-09-09T05:53:44;25.00;59.70
49531;DHT22;38889;30.622;104.088;2022-09-09T05:56:14;25.00;59.80
49531;DHT22;38889;30.622;104.088;2022-09-09T05:58:42;25.00;59.80
49531;DHT22;38889;30.622;104.088;2022-09-09T06:01:41;25.00;59.80
49531;DHT22;38889;30.622;104.088;2022-09-09T06:04:08;25.00;59.70
49531;DHT22;38889;30.622;104.088;2022-09-09T06:06:37;25.00;59.80
49531;DHT22;38889;30.622;104.088;2022-09-09T06:09:06;25.00;60.50
49531;DHT22;38889;30.622;104.088;2022-09-09T06:11:37;25.00;59.90
49531;DHT22;38889;30.622;104.088;2022-09-09T06:14:05;25.00;59.80
49531;DHT22;38889;30.622;104.088;2022-09-09T06:16:33;25.00;59.90
49531;DHT22;38889;30.622;104.088;2022-09-09T06:19:02;25.10;59.90
49531;DHT22;38889;30.622;104.088;2022-09-09T06:21:34;25.00;59.90
49531;DHT22;38889;30.622;104.088;2022-09-09T06:24:05;25.00;59.80
49531;DHT22;38889;30.622;104.088;2022-09-09T06:26:35;25.00;59.90
49531;DHT22;38889;30.622;104.088;2022-09-09T06:29:03;25.10;59.90
49531;DHT22;38889;30.622;104.088;2022-09-09T06:31:33;25.00;59.90
49531;DHT22;38889;30.622;104.088;2022-09-09T06:34:01;25.10;59.90
49531;DHT22;38889;30.622;104.088;2022-09-09T06:36:33;25.00;59.80
49531;DHT22;38889;30.622;104.088;2022-09-09T06:39:01;25.10;59.80
49531;DHT22;38889;30.622;104.088;2022-09-09T06:41:31;25.10;59.80
49531;DHT22;38889;30.622;104.088;2022-09-09T06:44:05;25.10;59.80
49531;DHT22;38889;30.622;104.088;2022-09-09T06:46:36;25.10;59.70
49531;DHT22;38889;30.622;104.088;2022-09-09T06:49:03;25.10;59.70
49531;DHT22;38889;30.622;104.088;2022-09-09T06:51:33;25.10;59.80
49531;DHT22;38889;30.622;104.088;2022-09-09T06:54:01;25.10;59.80
49531;DHT22;38889;30.622;104.088;2022-09-09T06:56:31;25.10;59.80
49531;DHT22;38889;30.622;104.088;2022-09-09T06:59:01;25.10;59.80
49531;DHT22;38889;30.622;104.088;2022-09-09T07:01:32;25.10;59.80
49531;DHT22;38889;30.622;104.088;2022-09-09T07:04:00;25.10;59.80
49531;DHT22;38889;30.622;104.088;2022-09-09T07:06:33;25.10;59.80
49531;DHT22;38889;30.622;104.088;2022-09-09T07:09:03;25.10;59.80
49531;DHT22;38889;30.622;104.088;2022-09-09T07:11:39;25.10;59.80
49531;DHT22;38889;30.622;104.088;2022-09-09T07:14:08;25.10;59.80
49531;DHT22;38889;30.622;104.088;2022-09-09T07:16:42;25.20;60.00
49531;DHT22;38889;30.622;104.088;2022-09-09T07:19:10;25.10;60.50
49531;DHT22;38889;30.622;104.088;2022-09-09T07:21:38;25.10;59.90
49531;DHT22;38889;30.622;104.088;2022-09-09T07:24:06;25.10;59.90
49531;DHT22;38889;30.622;104.088;2022-09-09T07:26:37;25.20;60.00
49531;DHT22;38889;30.622;104.088;2022-09-09T07:29:05;25.10;59.90
49531;DHT22;38889;30.622;104.088;2022-09-09T07:31:35;25.20;60.00
49531;DHT22;38889;30.622;104.088;2022-09-09T07:34:03;25.10;59.90
49531;DHT22;38889;30.622;104.088;2022-09-09T07:36:40;25.20;60.00
49531;DHT22;38889;30.622;104.088;2022-09-09T07:39:13;25.20;59.90
49531;DHT22;38889;30.622;104.088;2022-09-09T07:41:46;25.10;60.00
49531;DHT22;38889;30.622;104.088;2022-09-09T07:44:26;25.20;60.10
49531;DHT22;38889;30.622;104.088;2022-09-09T07:47:03;25.20;59.90
49531;DHT22;38889;30.622;104.088;2022-09-09T07:49:30;25.20;60.00
49531;DHT22;38889;30.622;104.088;2022-09-09T07:51:58;25.10;59.80
49531;DHT22;38889;30.622;104.088;2022-09-09T07:54:25;25.10;60.10
49531;DHT22;38889;30.622;104.088;2022-09-09T07:56:53;25.10;60.20
49531;DHT22;38889;30.622;104.088;2022-09-09T07:59:20;25.10;60.20
49531;DHT22;38889;30.622;104.088;2022-09-09T08:01:49;25.10;60.20
49531;DHT22;38889;30.622;104.088;2022-09-09T08:04:20;25.10;60.20
49531;DHT22;38889;30.622;104.088;2022-09-09T08:06:50;25.10;60.20
49531;DHT22;38889;30.622;104.088;2022-09-09T08:09:20;25.10;60.10
49531;DHT22;38889;30.622;104.088;2022-09-09T08:11:47;25.10;60.10
49531;DHT22;38889;30.622;104.088;2022-09-09T08:14:15;25.20;60.20
49531;DHT22;38889;30.622;104.088;2022-09-09T08:16:45;25.10;60.20
49531;DHT22;38889;30.622;104.088;2022-09-09T08:19:14;25.20;60.20
49531;DHT22;38889;30.622;104.088;2022-09-09T08:21:45;25.20;60.20
49531;DHT22;38889;30.622;104.088;2022-09-09T08:24:13;25.20;60.20
49531;DHT22;38889;30.622;104.088;2022-09-09T08:26:48;25.20;60.20
49531;DHT22;38889;30.622;104.088;2022-09-09T08:29:16;25.20;60.10
49531;DHT22;38889;30.622;104.088;2022-09-09T08:31:54;25.20;60.20
49531;DHT22;38889;30.622;104.088;2022-09-09T08:34:25;25.20;60.10
49531;DHT22;38889;30.622;104.088;2022-09-09T08:36:54;25.20;60.20
49531;DHT22;38889;30.622;104.088;2022-09-09T08:39:27;25.20;60.30
49531;DHT22;38889;30.622;104.088;2022-09-09T08:50:32;25.20;60.30
49531;DHT22;38889;30.622;104.088;2022-09-09T08:53:21;25.20;60.30
49531;DHT22;38889;30.622;104.088;2022-09-09T08:55:49;25.20;60.20
49531;DHT22;38889;30.622;104.088;2022-09-09T09:01:35;25.20;60.40
49531;DHT22;38889;30.622;104.088;2022-09-09T09:04:00;25.20;60.60
49531;DHT22;38889;30.622;104.088;2022-09-09T09:06:35;25.20;60.40
49531;DHT22;38889;30.622;104.088;2022-09-09T09:11:55;25.20;60.50
49531;DHT22;38889;30.622;104.088;2022-09-09T09:14:31;25.20;60.50
49531;DHT22;38889;30.622;104.088;2022-09-09T09:17:11;25.20;60.50
49531;DHT22;38889;30.622;104.088;2022-09-09T09:19:43;25.20;60.40
49531;DHT22;38889;30.622;104.088;2022-09-09T09:22:22;25.20;60.50
49531;DHT22;38889;30.622;104.088;2022-09-09T09:28:00;25.20;60.30
49531;DHT22;38889;30.622;104.088;2022-09-09T09:33:53;25.20;60.40
49531;DHT22;38889;30.622;104.088;2022-09-09T09:36:52;25.20;60.50
49531;DHT22;38889;30.622;104.088;2022-09-09T09:41:50;25.30;60.50
49531;DHT22;38889;30.622;104.088;2022-09-09T09:44:25;25.20;60.40
49531;DHT22;38889;30.622;104.088;2022-09-09T09:47:04;25.20;60.40
49531;DHT22;38889;30.622;104.088;2022-09-09T09:49:33;25.20;60.80
49531;DHT22;38889;30.622;104.088;2022-09-09T09:52:02;25.20;60.90
49531;DHT22;38889;30.622;104.088;2022-09-09T09:54:34;25.20;60.90
49531;DHT22;38889;30.622;104.088;2022-09-09T09:57:15;25.20;60.80
49531;DHT22;38889;30.622;104.088;2022-09-09T09:59:43;25.20;60.70
49531;DHT22;38889;30.622;104.088;2022-09-09T10:02:22;25.20;60.90
49531;DHT22;38889;30.622;104.088;2022-09-09T10:05:14;25.20;60.80
49531;DHT22;38889;30.622;104.088;2022-09-09T10:07:41;25.20;60.60
49531;DHT22;38889;30.622;104.088;2022-09-09T10:10:28;25.20;60.80
49531;DHT22;38889;30.622;104.088;2022-09-09T10:21:26;25.30;60.70
49531;DHT22;38889;30.622;104.088;2022-09-09T10:24:25;25.30;60.80
49531;DHT22;38889;30.622;104.088;2022-09-09T10:27:32;25.30;60.70
49531;DHT22;38889;30.622;104.088;2022-09-09T10:30:19;25.30;60.70
49531;DHT22;38889;30.622;104.088;2022-09-09T10:33:09;25.30;60.80
49531;DHT22;38889;30.622;104.088;2022-09-09T10:35:58;25.30;60.70
49531;DHT22;38889;30.622;104.088;2022-09-09T10:38:46;25.30;60.70
49531;DHT22;38889;30.622;104.088;2022-09-09T10:41:24;25.30;60.70
49531;DHT22;38889;30.622;104.088;2022-09-09T10:45:02;25.30;60.90
49531;DHT22;38889;30.622;104.088;2022-09-09T10:50:20;25.30;60.70
49531;DHT22;38889;30.622;104.088;2022-09-09T10:53:14;25.30;60.80
49531;DHT22;38889;30.622;104.088;2022-09-09T10:55:51;25.30;60.60
49531;DHT22;38889;30.622;104.088;2022-09-09T10:58:52;25.30;60.70
49531;DHT22;38889;30.622;104.088;2022-09-09T11:01:34;25.30;60.60
49531;DHT22;38889;30.622;104.088;2022-09-09T11:04:19;25.30;60.60
49531;DHT22;38889;30.622;104.088;2022-09-09T11:06:54;25.40;60.70
49531;DHT22;38889;30.622;104.088;2022-09-09T11:09:28;25.40;60.80
49531;DHT22;38889;30.622;104.088;2022-09-09T11:11:59;25.40;60.80
49531;DHT22;38889;30.622;104.088;2022-09-09T11:17:11;25.40;60.80
49531;DHT22;38889;30.622;104.088;2022-09-09T11:19:40;25.40;60.70
49531;DHT22;38889;30.622;104.088;2022-09-09T11:25:44;25.40;61.40
49531;DHT22;38889;30.622;104.088;2022-09-09T11:29:16;25.40;60.40
49531;DHT22;38889;30.622;104.088;2022-09-09T11:40:21;25.40;60.30
49531;DHT22;38889;30.622;104.088;2022-09-09T11:43:00;25.40;60.30
49531;DHT22;38889;30.622;104.088;2022-09-09T11:45:31;25.40;60.60
49531;DHT22;38889;30.622;104.088;2022-09-09T11:48:02;25.40;60.60
49531;DHT22;38889;30.622;104.088;2022-09-09T11:50:35;25.50;60.60
49531;DHT22;38889;30.622;104.088;2022-09-09T11:53:20;25.50;60.60
49531;DHT22;38889;30.622;104.088;2022-09-09T11:56:06;25.40;60.30
49531;DHT22;38889;30.622;104.088;2022-09-09T11:58:39;25.50;60.40
49531;DHT22;38889;30.622;104.088;2022-09-09T12:01:15;25.50;60.50
49531;DHT22;38889;30.622;104.088;2022-09-09T12:03:48;25.50;60.40
49531;DHT22;38889;30.622;104.088;2022-09-09T12:06:19;25.50;60.40
49531;DHT22;38889;30.622;104.088;2022-09-09T12:08:56;25.50;60.40
49531;DHT22;38889;30.622;104.088;2022-09-09T12:11:29;25.50;60.40
49531;DHT22;38889;30.622;104.088;2022-09-09T12:14:00;25.50;60.30
49531;DHT22;38889;30.622;104.088;2022-09-09T12:16:34;25.50;60.40
49531;DHT22;38889;30.622;104.088;2022-09-09T12:19:15;25.50;60.30
49531;DHT22;38889;30.622;104.088;2022-09-09T12:22:09;25.50;60.30
49531;DHT22;38889;30.622;104.088;2022-09-09T12:27:35;25.60;60.10
49531;DHT22;38889;30.622;104.088;2022-09-09T12:30:16;25.50;60.20
49531;DHT22;38889;30.622;104.088;2022-09-09T12:33:10;25.50;60.40
49531;DHT22;38889;30.622;104.088;2022-09-09T12:35:40;25.60;60.10
49531;DHT22;38889;30.622;104.088;2022-09-09T12:38:15;25.60;60.50
49531;DHT22;38889;30.622;104.088;2022-09-09T12:40:55;25.60;60.30
49531;DHT22;38889;30.622;104.088;2022-09-09T12:43:25;25.60;60.30
49531;DHT22;38889;30.622;104.088;2022-09-09T12:46:02;25.60;60.50
49531;DHT22;38889;30.622;104.088;2022-09-09T12:48:39;25.60;60.40
49531;DHT22;38889;30.622;104.088;2022-09-09T12:51:37;25.60;60.30
49531;DHT22;38889;30.622;104.088;2022-09-09T12:54:18;25.60;60.10
49531;DHT22;38889;30.622;104.088;2022-09-09T12:56:48;25.60;60.30
49531;DHT22;38889;30.622;104.088;2022-09-09T12:59:25;25.60;60.40
49531;DHT22;38889;30.622;104.088;2022-09-09T13:01:57;25.60;60.20
49531;DHT22;38889;30.622;104.088;2022-09-09T13:04:24;25.60;60.20
49531;DHT22;38889;30.622;104.088;2022-09-09T13:06:52;25.60;60.40
49531;DHT22;38889;30.622;104.088;2022-09-09T13:09:20;25.70;60.40
49531;DHT22;38889;30.622;104.088;2022-09-09T13:11:53;25.60;60.20
49531;DHT22;38889;30.622;104.088;2022-09-09T13:14:31;25.60;60.10
49531;DHT22;38889;30.622;104.088;2022-09-09T13:17:03;25.60;60.10
49531;DHT22;38889;30.622;104.088;2022-09-09T13:19:37;25.60;60.20
49531;DHT22;38889;30.622;104.088;2022-09-09T13:25:25;25.60;60.10
49531;DHT22;38889;30.622;104.088;2022-09-09T13:27:58;25.60;60.10
49531;DHT22;38889;30.622;104.088;2022-09-09T13:30:37;25.60;60.30
49531;DHT22;38889;30.622;104.088;2022-09-09T13:35:55;25.60;60.40
49531;DHT22;38889;30.622;104.088;2022-09-09T13:38:23;25.60;60.30
49531;DHT22;38889;30.622;104.088;2022-09-09T13:41:03;25.60;60.40
49531;DHT22;38889;30.622;104.088;2022-09-09T13:43:44;25.60;60.40
49531;DHT22;38889;30.622;104.088;2022-09-09T13:46:39;25.60;60.50
49531;DHT22;38889;30.622;104.088;2022-09-09T13:51:39;25.60;60.50
49531;DHT22;38889;30.622;104.088;2022-09-09T13:54:13;25.60;60.50
49531;DHT22;38889;30.622;104.088;2022-09-09T13:56:41;25.60;60.50
49531;DHT22;38889;30.622;104.088;2022-09-09T13:59:14;25.60;60.50
49531;DHT22;38889;30.622;104.088;2022-09-09T14:01:42;25.60;60.50
49531;DHT22;38889;30.622;104.088;2022-09-09T14:04:10;25.60;60.60
49531;DHT22;38889;30.622;104.088;2022-09-09T14:06:38;25.60;60.60
49531;DHT22;38889;30.622;104.088;2022-09-09T14:09:07;25.60;60.60
49531;DHT22;38889;30.622;104.088;2022-09-09T14:11:34;25.60;60.60
49531;DHT22;38889;30.622;104.088;2022-09-09T14:14:02;25.60;60.60
49531;DHT22;38889;30.622;104.088;2022-09-09T14:16:32;25.60;60.60
49531;DHT22;38889;30.622;104.088;2022-09-09T14:19:07;25.60;60.60
49531;DHT22;38889;30.622;104.088;2022-09-09T14:21:34;25.60;60.70
49531;DHT22;38889;30.622;104.088;2022-09-09T14:24:01;25.60;60.60
49531;DHT22;38889;30.622;104.088;2022-09-09T14:26:29;25.60;60.60
49531;DHT22;38889;30.622;104.088;2022-09-09T14:28:57;25.60;60.60
49531;DHT22;38889;30.622;104.088;2022-09-09T14:31:25;25.60;60.60
49531;DHT22;38889;30.622;104.088;2022-09-09T14:33:52;25.60;60.60
49531;DHT22;38889;30.622;104.088;2022-09-09T14:36:20;25.60;60.60
49531;DHT22;38889;30.622;104.088;2022-09-09T14:38:47;25.60;60.60
49531;DHT22;38889;30.622;104.088;2022-09-09T14:41:19;25.60;60.70
49531;DHT22;38889;30.622;104.088;2022-09-09T14:43:49;25.60;60.60
49531;DHT22;38889;30.622;104.088;2022-09-09T14:46:18;25.60;60.60
49531;DHT22;38889;30.622;104.088;2022-09-09T14:48:46;25.60;60.60
49531;DHT22;38889;30.622;104.088;2022-09-09T14:51:22;25.60;60.60
49531;DHT22;38889;30.622;104.088;2022-09-09T14:53:55;25.60;60.50
49531;DHT22;38889;30.622;104.088;2022-09-09T14:56:27;25.60;60.60
49531;DHT22;38889;30.622;104.088;2022-09-09T14:58:57;25.60;60.40
49531;DHT22;38889;30.622;104.088;2022-09-09T15:01:25;25.60;60.70
49531;DHT22;38889;30.622;104.088;2022-09-09T15:03:58;25.60;60.70
49531;DHT22;38889;30.622;104.088;2022-09-09T15:06:27;25.60;60.80
49531;DHT22;38889;30.622;104.088;2022-09-09T15:08:56;25.60;60.80
49531;DHT22;38889;30.622;104.088;2022-09-09T15:11:35;25.60;60.80
49531;DHT22;38889;30.622;104.088;2022-09-09T15:14:09;25.60;60.70
49531;DHT22;38889;30.622;104.088;2022-09-09T15:16:39;25.60;61.40
49531;DHT22;38889;30.622;104.088;2022-09-09T15:19:07;25.60;60.80
49531;DHT22;38889;30.622;104.088;2022-09-09T15:21:36;25.60;60.80
49531;DHT22;38889;30.622;104.088;2022-09-09T15:24:05;25.60;60.80
49531;DHT22;38889;30.622;104.088;2022-09-09T15:26:39;25.60;60.70
49531;DHT22;38889;30.622;104.088;2022-09-09T15:29:07;25.60;60.80
49531;DHT22;38889;30.622;104.088;2022-09-09T15:31:36;25.60;60.70
49531;DHT22;38889;30.622;104.088;2022-09-09T15:34:06;25.60;60.70
49531;DHT22;38889;30.622;104.088;2022-09-09T15:36:39;25.60;60.80
49531;DHT22;38889;30.622;104.088;2022-09-09T15:39:09;25.70;61.40
49531;DHT22;38889;30.622;104.088;2022-09-09T15:41:40;25.70;60.70
49531;DHT22;38889;30.622;104.088;2022-09-09T15:44:07;25.60;60.70
49531;DHT22;38889;30.622;104.088;2022-09-09T15:46:39;25.70;60.80
49531;DHT22;38889;30.622;104.088;2022-09-09T15:49:21;25.60;60.70
49531;DHT22;38889;30.622;104.088;2022-09-09T15:51:56;25.60;60.40
49531;DHT22;38889;30.622;104.088;2022-09-09T15:54:26;25.70;60.60
49531;DHT22;38889;30.622;104.088;2022-09-09T15:56:57;25.60;60.60
49531;DHT22;38889;30.622;104.088;2022-09-09T15:59:27;25.70;60.70
49531;DHT22;38889;30.622;104.088;2022-09-09T16:01:55;25.70;60.80
49531;DHT22;38889;30.622;104.088;2022-09-09T16:04:24;25.70;60.70
49531;DHT22;38889;30.622;104.088;2022-09-09T16:06:58;25.70;60.80
49531;DHT22;38889;30.622;104.088;2022-09-09T16:09:33;25.70;60.70
49531;DHT22;38889;30.622;104.088;2022-09-09T16:12:03;25.70;60.70
49531;DHT22;38889;30.622;104.088;2022-09-09T16:14:36;25.70;60.70
49531;DHT22;38889;30.622;104.088;2022-09-09T16:17:04;25.70;60.70
49531;DHT22;38889;30.622;104.088;2022-09-09T16:19:33;25.70;60.70
49531;DHT22;38889;30.622;104.088;2022-09-09T16:22:01;25.70;60.70
49531;DHT22;38889;30.622;104.088;2022-09-09T16:24:29;25.70;60.70
49531;DHT22;38889;30.622;104.088;2022-09-09T16:26:57;25.70;60.70
49531;DHT22;38889;30.622;104.088;2022-09-09T16:29:25;25.70;60.70
49531;DHT22;38889;30.622;104.088;2022-09-09T16:31:54;25.70;60.70
49531;DHT22;38889;30.622;104.088;2022-09-09T16:34:22;25.70;60.80
49531;DHT22;38889;30.622;104.088;2022-09-09T16:36:50;25.70;60.80
49531;DHT22;38889;30.622;104.088;2022-09-09T16:39:21;25.70;60.70
49531;DHT22;38889;30.622;104.088;2022-09-09T16:41:48;25.70;60.70
49531;DHT22;38889;30.622;104.088;2022-09-09T16:44:17;25.60;60.70
49531;DHT22;38889;30.622;104.088;2022-09-09T16:46:47;25.70;60.80
49531;DHT22;38889;30.622;104.088;2022-09-09T16:49:15;25.70;60.80
49531;DHT22;38889;30.622;104.088;2022-09-09T16:51:46;25.60;60.70
49531;DHT22;38889;30.622;104.088;2022-09-09T16:54:15;25.70;60.70
49531;DHT22;38889;30.622;104.088;2022-09-09T16:56:46;25.70;60.70
49531;DHT22;38889;30.622;104.088;2022-09-09T16:59:15;25.70;60.70
49531;DHT22;38889;30.622;104.088;2022-09-09T17:01:45;25.70;60.70
49531;DHT22;38889;30.622;104.088;2022-09-09T17:04:18;25.60;60.70
49531;DHT22;38889;30.622;104.088;2022-09-09T17:06:48;25.70;60.70
49531;DHT22;38889;30.622;104.088;2022-09-09T17:09:19;25.70;60.70
49531;DHT22;38889;30.622;104.088;2022-09-09T17:11:48;25.70;60.70
49531;DHT22;38889;30.622;104.088;2022-09-09T17:14:20;25.70;60.70
49531;DHT22;38889;30.622;104.088;2022-09-09T17:16:48;25.70;60.70
49531;DHT22;38889;30.622;104.088;2022-09-09T17:19:16;25.70;60.70
49531;DHT22;38889;30.622;104.088;2022-09-09T17:21:44;25.70;60.80
49531;DHT22;38889;30.622;104.088;2022-09-09T17:24:13;25.70;60.80